Time;durP1;ratioP1;P1;durP2;ratioP2;P2;SDS_P1;SDS_P2;PMS_P1;PMS_P2;Temp;Humidity;BMP_temperature;BMP_pressure;BME280_temperature;BME280_humidity;BME280_pressure;Samples;Min_cycle;Max_cycle;Signal;HPM_P1;HPM_P2
2024/03/29 17:00:53;;;;;;;;;;;10.00;99.90;;;;;;5048199;27;19918;-93
2024/03/29 17:03:19;;;;;;;;;;;9.90;99.90;;;;;;5002414;28;19914;-92
2024/03/29 17:05:54;;;;;;;;;;;9.90;99.90;;;;;;5007207;28;20028;-93
2024/03/29 17:08:20;;;;;;;;;;;10.00;99.90;;;;;;5001807;28;20405;-92
2024/03/29 17:11:01;;;;;;;;;;;;;;;;;;;;;
2024/03/29 17:29:00;;;;;;;;;;;10.10;99.90;;;;;;5105323;27;20399;-91
2024/03/29 17:31:26;;;;;;;;;;;10.00;99.90;;;;;;5066147;28;19921;-91
2024/03/29 17:33:51;;;;;;;;;;;10.00;99.90;;;;;;5071899;28;20272;-91
2024/03/29 17:36:19;;;;;;;;;;;10.10;99.90;;;;;;5075968;28;19920;-92
2024/03/29 17:38:54;;;;;;;;;;;10.10;99.90;;;;;;5065812;28;19920;-92
2024/03/29 17:41:31;;;;;;;;;;;10.20;99.90;;;;;;5076470;28;19922;-93
2024/03/29 17:43:58;;;;;;;;;;;10.20;99.90;;;;;;5064921;28;19924;-92
2024/03/29 17:46:23;;;;;;;;;;;10.30;99.90;;;;;;5069068;28;20007;-92
2024/03/29 17:48:49;;;;;;;;;;;10.30;99.90;;;;;;5066159;28;19956;-92
2024/03/29 17:51:14;;;;;;;;;;;10.40;99.90;;;;;;5061467;28;19913;-92
2024/03/29 17:54:09;;;;;;;;;;;10.40;99.90;;;;;;5066173;28;20368;-92
2024/03/29 17:56:34;;;;;;;;;;;10.50;99.90;;;;;;5064979;28;19917;-91
2024/03/29 17:59:00;;;;;;;;;;;10.50;99.90;;;;;;5085433;28;20327;-93
2024/03/29 18:01:25;;;;;;;;;;;10.50;99.90;;;;;;5063360;28;20357;-93
2024/03/29 18:03:52;;;;;;;;;;;10.60;99.90;;;;;;5071638;28;19917;-95
2024/03/29 18:06:18;;;;;;;;;;;10.60;99.90;;;;;;5074693;28;19929;-92
2024/03/29 18:08:43;;;;;;;;;;;10.60;99.90;;;;;;5067012;28;19913;-95
2024/03/29 18:11:11;;;;;;;;;;;10.70;99.90;;;;;;5065704;28;19912;-94
2024/03/29 18:13:37;;;;;;;;;;;10.70;99.90;;;;;;5064696;28;19923;-93
2024/03/29 18:16:03;;;;;;;;;;;10.70;99.90;;;;;;5073616;28;19912;-95
2024/03/29 18:18:32;;;;;;;;;;;10.80;99.90;;;;;;5078036;28;20003;-95
2024/03/29 18:20:58;;;;;;;;;;;10.90;99.90;;;;;;5072952;28;19920;-94
2024/03/29 18:23:26;;;;;;;;;;;10.90;99.90;;;;;;5087298;28;19917;-93
2024/03/29 18:25:51;;;;;;;;;;;10.90;99.90;;;;;;5080594;28;19952;-94
2024/03/29 18:28:17;;;;;;;;;;;11.00;99.90;;;;;;5064246;28;19993;-96
2024/03/29 18:30:43;;;;;;;;;;;11.00;99.90;;;;;;5062581;28;20007;-94
2024/03/29 18:33:08;;;;;;;;;;;11.00;99.90;;;;;;5083722;28;20021;-94
2024/03/29 18:35:35;;;;;;;;;;;11.00;99.90;;;;;;5066656;28;20254;-96
2024/03/29 18:38:00;;;;;;;;;;;10.90;99.90;;;;;;5075690;28;19960;-93
2024/03/29 18:40:26;;;;;;;;;;;11.00;99.90;;;;;;5060766;28;19916;-93
2024/03/29 18:42:56;;;;;;;;;;;10.90;99.90;;;;;;5056137;28;20013;-94
2024/03/29 18:45:22;;;;;;;;;;;10.90;99.90;;;;;;5059537;28;20377;-95
2024/03/29 18:47:48;;;;;;;;;;;10.80;99.90;;;;;;5058418;28;19939;-93
2024/03/29 18:50:13;;;;;;;;;;;10.80;99.90;;;;;;5054939;28;19966;-93
2024/03/29 18:52:39;;;;;;;;;;;10.80;99.90;;;;;;5065582;28;19920;-95
2024/03/29 18:55:05;;;;;;;;;;;10.80;99.90;;;;;;5061721;28;19939;-96
2024/03/29 18:57:30;;;;;;;;;;;10.80;99.90;;;;;;5062844;28;19980;-96
2024/03/29 18:59:56;;;;;;;;;;;10.80;99.90;;;;;;5056727;28;20411;-90
2024/03/29 19:02:21;;;;;;;;;;;10.70;99.90;;;;;;5056651;28;19974;-90
2024/03/29 19:04:47;;;;;;;;;;;10.80;99.90;;;;;;5052298;28;19943;-96
2024/03/29 19:07:14;;;;;;;;;;;10.70;99.90;;;;;;5060280;28;20047;-96
2024/03/29 19:09:42;;;;;;;;;;;10.70;99.90;;;;;;5070403;28;19919;-91
2024/03/29 19:12:08;;;;;;;;;;;10.60;99.90;;;;;;5058515;28;20384;-90
2024/03/29 19:14:33;;;;;;;;;;;10.60;99.90;;;;;;5062449;28;19993;-91
2024/03/29 19:16:59;;;;;;;;;;;10.60;99.90;;;;;;5054117;28;19923;-91
2024/03/29 19:19:25;;;;;;;;;;;10.50;99.90;;;;;;5071120;28;19913;-91
2024/03/29 19:21:56;;;;;;;;;;;10.50;99.90;;;;;;5073479;28;19912;-94
2024/03/29 19:24:22;;;;;;;;;;;10.50;99.90;;;;;;5079746;28;19920;-92
2024/03/29 19:26:53;;;;;;;;;;;10.40;99.90;;;;;;5102398;28;19925;-95
2024/03/29 19:29:19;;;;;;;;;;;10.40;99.90;;;;;;5045959;28;19917;-89
2024/03/29 19:31:45;;;;;;;;;;;10.40;99.90;;;;;;5082045;28;19913;-89
2024/03/29 19:34:10;;;;;;;;;;;10.40;99.90;;;;;;5051324;28;19921;-90
2024/03/29 19:36:35;;;;;;;;;;;10.40;99.90;;;;;;5049936;28;19921;-90
2024/03/29 19:39:04;;;;;;;;;;;10.30;99.90;;;;;;5058121;28;20007;-90
2024/03/29 19:41:33;;;;;;;;;;;10.30;99.90;;;;;;5053013;28;20314;-91
2024/03/29 19:43:58;;;;;;;;;;;10.30;99.90;;;;;;5056902;28;19913;-89
2024/03/29 19:46:24;;;;;;;;;;;10.20;99.90;;;;;;5073162;28;19959;-95
2024/03/29 19:48:49;;;;;;;;;;;10.20;99.90;;;;;;5067181;28;19919;-90
2024/03/29 19:51:15;;;;;;;;;;;10.20;99.90;;;;;;5073830;28;19916;-89
2024/03/29 19:53:41;;;;;;;;;;;10.20;99.90;;;;;;5065326;28;19947;-91
2024/03/29 19:56:07;;;;;;;;;;;10.10;99.90;;;;;;5057954;28;19966;-88
2024/03/29 19:58:32;;;;;;;;;;;10.10;99.90;;;;;;5055468;28;19923;-91
2024/03/29 20:00:58;;;;;;;;;;;10.00;99.90;;;;;;5060405;28;19935;-93
2024/03/29 20:03:23;;;;;;;;;;;10.00;99.90;;;;;;5064036;28;19939;-94
2024/03/29 20:05:49;;;;;;;;;;;10.00;99.90;;;;;;5056236;28;19969;-95
2024/03/29 20:08:15;;;;;;;;;;;9.90;99.90;;;;;;5064000;28;19913;-94
2024/03/29 20:10:41;;;;;;;;;;;9.90;99.90;;;;;;5097289;28;20349;-92
2024/03/29 20:13:13;;;;;;;;;;;9.80;99.90;;;;;;5057143;28;19917;-94
2024/03/29 20:15:39;;;;;;;;;;;9.80;99.90;;;;;;5086784;28;20354;-94
2024/03/29 20:18:05;;;;;;;;;;;9.80;99.90;;;;;;5048172;28;19928;-93
2024/03/29 20:20:34;;;;;;;;;;;9.70;99.90;;;;;;5053962;28;19966;-89
2024/03/29 20:23:00;;;;;;;;;;;9.70;99.90;;;;;;5070985;28;19913;-89
2024/03/29 20:25:25;;;;;;;;;;;9.70;99.90;;;;;;5062095;28;19920;-93
2024/03/29 20:27:51;;;;;;;;;;;9.70;99.90;;;;;;5060945;28;19928;-92
2024/03/29 20:30:19;;;;;;;;;;;9.70;99.90;;;;;;5068297;28;19915;-92
2024/03/29 20:32:45;;;;;;;;;;;9.60;99.90;;;;;;5074757;28;19935;-94
2024/03/29 20:35:11;;;;;;;;;;;9.60;99.90;;;;;;5074273;28;19914;-93
2024/03/29 20:37:36;;;;;;;;;;;9.60;99.90;;;;;;5059644;28;19925;-94
2024/03/29 20:40:03;;;;;;;;;;;9.50;99.90;;;;;;5055128;28;20411;-94
2024/03/29 20:42:28;;;;;;;;;;;9.50;99.90;;;;;;5054090;28;19909;-93
